sensor_id;sensor_type;location;lat;lon;timestamp;P1;durP1;ratioP1;P2;durP2;ratioP2
21192;SDS011;10754;51.106;7.164;2023-03-01T00:02:11;4.80;;;4.30;;
21192;SDS011;10754;51.106;7.164;2023-03-01T00:04:36;4.73;;;3.87;;
21192;SDS011;10754;51.106;7.164;2023-03-01T00:07:02;4.90;;;3.93;;
21192;SDS011;10754;51.106;7.164;2023-03-01T00:09:27;5.67;;;3.90;;
21192;SDS011;10754;51.106;7.164;2023-03-01T00:11:52;5.67;;;3.97;;
21192;SDS011;10754;51.106;7.164;2023-03-01T00:14:18;4.67;;;4.00;;
21192;SDS011;10754;51.106;7.164;2023-03-01T00:16:44;4.27;;;3.87;;
21192;SDS011;10754;51.106;7.164;2023-03-01T00:19:14;4.30;;;3.90;;
21192;SDS011;10754;51.106;7.164;2023-03-01T00:21:42;4.13;;;3.73;;
21192;SDS011;10754;51.106;7.164;2023-03-01T00:24:08;4.60;;;4.20;;
21192;SDS011;10754;51.106;7.164;2023-03-01T00:26:34;3.73;;;3.33;;
21192;SDS011;10754;51.106;7.164;2023-03-01T00:28:59;4.17;;;3.70;;
21192;SDS011;10754;51.106;7.164;2023-03-01T00:31:27;6.47;;;4.07;;
21192;SDS011;10754;51.106;7.164;2023-03-01T00:33:57;4.40;;;3.60;;
21192;SDS011;10754;51.106;7.164;2023-03-01T00:36:28;4.60;;;3.77;;
21192;SDS011;10754;51.106;7.164;2023-03-01T00:38:56;4.10;;;3.70;;
21192;SDS011;10754;51.106;7.164;2023-03-01T00:41:22;3.83;;;3.53;;
21192;SDS011;10754;51.106;7.164;2023-03-01T00:43:48;3.60;;;3.30;;
21192;SDS011;10754;51.106;7.164;2023-03-01T00:46:16;4.10;;;3.70;;
21192;SDS011;10754;51.106;7.164;2023-03-01T00:48:43;5.07;;;4.20;;
21192;SDS011;10754;51.106;7.164;2023-03-01T00:51:10;4.17;;;3.77;;
21192;SDS011;10754;51.106;7.164;2023-03-01T00:53:40;4.27;;;3.87;;
21192;SDS011;10754;51.106;7.164;2023-03-01T00:56:07;3.50;;;3.20;;
21192;SDS011;10754;51.106;7.164;2023-03-01T00:58:34;5.00;;;3.70;;
21192;SDS011;10754;51.106;7.164;2023-03-01T01:01:00;4.10;;;3.70;;
21192;SDS011;10754;51.106;7.164;2023-03-01T01:03:26;4.17;;;3.67;;
21192;SDS011;10754;51.106;7.164;2023-03-01T01:05:52;4.13;;;3.73;;
21192;SDS011;10754;51.106;7.164;2023-03-01T01:08:19;4.13;;;3.73;;
21192;SDS011;10754;51.106;7.164;2023-03-01T01:10:45;4.23;;;3.83;;
21192;SDS011;10754;51.106;7.164;2023-03-01T01:13:11;4.03;;;3.63;;
21192;SDS011;10754;51.106;7.164;2023-03-01T01:15:38;4.40;;;4.00;;
21192;SDS011;10754;51.106;7.164;2023-03-01T01:18:04;4.83;;;4.23;;
21192;SDS011;10754;51.106;7.164;2023-03-01T01:20:30;3.90;;;3.50;;
21192;SDS011;10754;51.106;7.164;2023-03-01T01:22:55;4.13;;;3.73;;
21192;SDS011;10754;51.106;7.164;2023-03-01T01:25:21;4.07;;;3.67;;
21192;SDS011;10754;51.106;7.164;2023-03-01T01:27:46;4.03;;;3.73;;
21192;SDS011;10754;51.106;7.164;2023-03-01T01:30:12;4.17;;;3.77;;
21192;SDS011;10754;51.106;7.164;2023-03-01T01:32:38;4.13;;;3.73;;
21192;SDS011;10754;51.106;7.164;2023-03-01T01:35:03;4.97;;;4.30;;
21192;SDS011;10754;51.106;7.164;2023-03-01T01:37:29;4.37;;;3.97;;
21192;SDS011;10754;51.106;7.164;2023-03-01T01:39:59;3.60;;;3.30;;
21192;SDS011;10754;51.106;7.164;2023-03-01T01:42:26;4.83;;;3.90;;
21192;SDS011;10754;51.106;7.164;2023-03-01T01:45:37;3.77;;;3.47;;
21192;SDS011;10754;51.106;7.164;2023-03-01T01:47:52;4.40;;;4.00;;
21192;SDS011;10754;51.106;7.164;2023-03-01T01:50:21;4.97;;;3.90;;
21192;SDS011;10754;51.106;7.164;2023-03-01T01:52:48;4.40;;;3.80;;
21192;SDS011;10754;51.106;7.164;2023-03-01T01:55:18;4.53;;;3.90;;
21192;SDS011;10754;51.106;7.164;2023-03-01T01:57:49;4.00;;;3.70;;
21192;SDS011;10754;51.106;7.164;2023-03-01T02:00:19;4.13;;;3.57;;
21192;SDS011;10754;51.106;7.164;2023-03-01T02:02:48;4.93;;;3.97;;
21192;SDS011;10754;51.106;7.164;2023-03-01T02:05:40;4.77;;;4.10;;
21192;SDS011;10754;51.106;7.164;2023-03-01T02:08:14;5.27;;;3.87;;
21192;SDS011;10754;51.106;7.164;2023-03-01T02:10:43;4.37;;;3.50;;
21192;SDS011;10754;51.106;7.164;2023-03-01T02:13:10;4.53;;;4.10;;
21192;SDS011;10754;51.106;7.164;2023-03-01T02:15:36;4.10;;;3.70;;
21192;SDS011;10754;51.106;7.164;2023-03-01T02:18:04;4.23;;;3.93;;
21192;SDS011;10754;51.106;7.164;2023-03-01T02:23:02;4.67;;;4.27;;
21192;SDS011;10754;51.106;7.164;2023-03-01T02:25:35;4.67;;;4.27;;
21192;SDS011;10754;51.106;7.164;2023-03-01T02:28:31;5.53;;;4.00;;
21192;SDS011;10754;51.106;7.164;2023-03-01T02:30:58;4.70;;;4.30;;
21192;SDS011;10754;51.106;7.164;2023-03-01T02:33:43;5.13;;;4.63;;
21192;SDS011;10754;51.106;7.164;2023-03-01T02:36:15;5.83;;;4.30;;
21192;SDS011;10754;51.106;7.164;2023-03-01T02:38:44;5.00;;;4.60;;
21192;SDS011;10754;51.106;7.164;2023-03-01T02:41:10;5.77;;;4.60;;
21192;SDS011;10754;51.106;7.164;2023-03-01T02:43:39;5.03;;;4.53;;
21192;SDS011;10754;51.106;7.164;2023-03-01T02:46:14;5.27;;;4.77;;
21192;SDS011;10754;51.106;7.164;2023-03-01T02:48:42;5.23;;;4.73;;
21192;SDS011;10754;51.106;7.164;2023-03-01T02:51:13;5.33;;;4.80;;
21192;SDS011;10754;51.106;7.164;2023-03-01T02:54:24;5.60;;;5.10;;
21192;SDS011;10754;51.106;7.164;2023-03-01T02:56:45;5.57;;;5.00;;
21192;SDS011;10754;51.106;7.164;2023-03-01T02:59:13;5.00;;;4.53;;
21192;SDS011;10754;51.106;7.164;2023-03-01T03:01:40;5.33;;;4.83;;
21192;SDS011;10754;51.106;7.164;2023-03-01T03:04:08;4.87;;;4.20;;
21192;SDS011;10754;51.106;7.164;2023-03-01T03:06:36;5.50;;;4.87;;
21192;SDS011;10754;51.106;7.164;2023-03-01T03:09:03;5.30;;;4.80;;
21192;SDS011;10754;51.106;7.164;2023-03-01T03:11:29;5.20;;;4.77;;
21192;SDS011;10754;51.106;7.164;2023-03-01T03:13:55;4.80;;;4.40;;
21192;SDS011;10754;51.106;7.164;2023-03-01T03:16:21;5.43;;;4.93;;
21192;SDS011;10754;51.106;7.164;2023-03-01T03:18:46;4.80;;;4.40;;
21192;SDS011;10754;51.106;7.164;2023-03-01T03:21:13;4.97;;;4.47;;
21192;SDS011;10754;51.106;7.164;2023-03-01T03:23:39;5.43;;;4.93;;
21192;SDS011;10754;51.106;7.164;2023-03-01T03:26:05;5.10;;;4.60;;
21192;SDS011;10754;51.106;7.164;2023-03-01T03:28:31;5.27;;;4.77;;
21192;SDS011;10754;51.106;7.164;2023-03-01T03:30:58;5.10;;;4.60;;
21192;SDS011;10754;51.106;7.164;2023-03-01T03:33:25;5.07;;;4.57;;
21192;SDS011;10754;51.106;7.164;2023-03-01T03:35:51;5.13;;;4.63;;
21192;SDS011;10754;51.106;7.164;2023-03-01T03:38:17;5.17;;;4.67;;
21192;SDS011;10754;51.106;7.164;2023-03-01T03:40:51;5.23;;;4.73;;
21192;SDS011;10754;51.106;7.164;2023-03-01T03:43:25;5.80;;;5.20;;
21192;SDS011;10754;51.106;7.164;2023-03-01T03:45:51;5.93;;;5.43;;
21192;SDS011;10754;51.106;7.164;2023-03-01T03:48:17;4.93;;;4.47;;
21192;SDS011;10754;51.106;7.164;2023-03-01T03:50:47;4.97;;;4.53;;
21192;SDS011;10754;51.106;7.164;2023-03-01T03:53:17;7.03;;;6.00;;
21192;SDS011;10754;51.106;7.164;2023-03-01T03:55:43;6.83;;;5.90;;
21192;SDS011;10754;51.106;7.164;2023-03-01T03:58:09;6.20;;;5.60;;
21192;SDS011;10754;51.106;7.164;2023-03-01T04:00:43;6.10;;;5.50;;
21192;SDS011;10754;51.106;7.164;2023-03-01T04:03:10;5.93;;;5.33;;
21192;SDS011;10754;51.106;7.164;2023-03-01T04:05:37;6.60;;;6.00;;
21192;SDS011;10754;51.106;7.164;2023-03-01T04:08:04;6.80;;;6.10;;
21192;SDS011;10754;51.106;7.164;2023-03-01T04:10:35;6.40;;;5.80;;
21192;SDS011;10754;51.106;7.164;2023-03-01T04:13:03;6.50;;;5.90;;
21192;SDS011;10754;51.106;7.164;2023-03-01T04:15:29;6.63;;;5.90;;
21192;SDS011;10754;51.106;7.164;2023-03-01T04:17:56;6.80;;;6.10;;
21192;SDS011;10754;51.106;7.164;2023-03-01T04:20:23;7.30;;;6.10;;
21192;SDS011;10754;51.106;7.164;2023-03-01T04:22:51;7.00;;;6.30;;
21192;SDS011;10754;51.106;7.164;2023-03-01T04:25:18;8.00;;;5.93;;
21192;SDS011;10754;51.106;7.164;2023-03-01T04:27:44;6.87;;;6.10;;
21192;SDS011;10754;51.106;7.164;2023-03-01T04:30:09;7.07;;;5.60;;
21192;SDS011;10754;51.106;7.164;2023-03-01T04:32:35;6.43;;;5.83;;
21192;SDS011;10754;51.106;7.164;2023-03-01T04:35:01;7.40;;;5.73;;
21192;SDS011;10754;51.106;7.164;2023-03-01T04:37:26;6.50;;;5.90;;
21192;SDS011;10754;51.106;7.164;2023-03-01T04:39:52;6.53;;;5.93;;
21192;SDS011;10754;51.106;7.164;2023-03-01T04:42:18;6.63;;;5.93;;
21192;SDS011;10754;51.106;7.164;2023-03-01T04:44:44;6.43;;;5.83;;
21192;SDS011;10754;51.106;7.164;2023-03-01T04:47:10;7.17;;;6.47;;
21192;SDS011;10754;51.106;7.164;2023-03-01T04:49:36;7.40;;;6.60;;
21192;SDS011;10754;51.106;7.164;2023-03-01T04:52:02;7.07;;;6.37;;
21192;SDS011;10754;51.106;7.164;2023-03-01T04:54:29;8.20;;;6.47;;
21192;SDS011;10754;51.106;7.164;2023-03-01T04:56:55;6.60;;;6.00;;
21192;SDS011;10754;51.106;7.164;2023-03-01T04:59:21;7.67;;;6.90;;
21192;SDS011;10754;51.106;7.164;2023-03-01T05:01:47;6.60;;;5.90;;
21192;SDS011;10754;51.106;7.164;2023-03-01T05:04:13;7.13;;;6.43;;
21192;SDS011;10754;51.106;7.164;2023-03-01T05:06:39;7.00;;;6.30;;
21192;SDS011;10754;51.106;7.164;2023-03-01T05:09:05;7.83;;;6.10;;
21192;SDS011;10754;51.106;7.164;2023-03-01T05:11:30;7.50;;;6.73;;
21192;SDS011;10754;51.106;7.164;2023-03-01T05:14:00;8.73;;;7.23;;
21192;SDS011;10754;51.106;7.164;2023-03-01T05:16:26;8.30;;;7.50;;
21192;SDS011;10754;51.106;7.164;2023-03-01T05:18:52;7.13;;;6.43;;
21192;SDS011;10754;51.106;7.164;2023-03-01T05:21:17;7.87;;;6.83;;
21192;SDS011;10754;51.106;7.164;2023-03-01T05:23:43;6.80;;;6.20;;
21192;SDS011;10754;51.106;7.164;2023-03-01T05:26:10;6.60;;;6.00;;
21192;SDS011;10754;51.106;7.164;2023-03-01T05:28:37;6.73;;;5.97;;
21192;SDS011;10754;51.106;7.164;2023-03-01T05:31:03;7.37;;;6.60;;
21192;SDS011;10754;51.106;7.164;2023-03-01T05:33:34;7.50;;;6.07;;
21192;SDS011;10754;51.106;7.164;2023-03-01T05:36:01;7.03;;;6.30;;
21192;SDS011;10754;51.106;7.164;2023-03-01T05:38:27;6.83;;;6.23;;
21192;SDS011;10754;51.106;7.164;2023-03-01T05:40:53;7.90;;;7.10;;
21192;SDS011;10754;51.106;7.164;2023-03-01T05:43:18;7.07;;;6.37;;
21192;SDS011;10754;51.106;7.164;2023-03-01T05:45:44;7.37;;;6.67;;
21192;SDS011;10754;51.106;7.164;2023-03-01T05:48:10;7.90;;;7.10;;
21192;SDS011;10754;51.106;7.164;2023-03-01T05:50:38;7.60;;;6.80;;
21192;SDS011;10754;51.106;7.164;2023-03-01T05:53:10;7.43;;;6.73;;
21192;SDS011;10754;51.106;7.164;2023-03-01T05:55:38;8.07;;;7.27;;
21192;SDS011;10754;51.106;7.164;2023-03-01T05:58:05;7.13;;;6.43;;
21192;SDS011;10754;51.106;7.164;2023-03-01T06:00:32;7.00;;;6.40;;
21192;SDS011;10754;51.106;7.164;2023-03-01T06:03:00;7.23;;;6.53;;
21192;SDS011;10754;51.106;7.164;2023-03-01T06:05:27;7.53;;;6.83;;
21192;SDS011;10754;51.106;7.164;2023-03-01T06:07:53;8.47;;;6.70;;
21192;SDS011;10754;51.106;7.164;2023-03-01T06:10:19;8.13;;;6.73;;
21192;SDS011;10754;51.106;7.164;2023-03-01T06:12:46;7.07;;;6.47;;
21192;SDS011;10754;51.106;7.164;2023-03-01T06:15:13;7.50;;;6.73;;
21192;SDS011;10754;51.106;7.164;2023-03-01T06:17:40;8.33;;;6.40;;
21192;SDS011;10754;51.106;7.164;2023-03-01T06:20:18;7.83;;;6.93;;
21192;SDS011;10754;51.106;7.164;2023-03-01T06:22:46;7.53;;;6.83;;
21192;SDS011;10754;51.106;7.164;2023-03-01T06:25:13;7.67;;;6.90;;
21192;SDS011;10754;51.106;7.164;2023-03-01T06:27:40;8.10;;;7.20;;
21192;SDS011;10754;51.106;7.164;2023-03-01T06:30:07;8.90;;;7.43;;
21192;SDS011;10754;51.106;7.164;2023-03-01T06:32:34;8.30;;;7.53;;
21192;SDS011;10754;51.106;7.164;2023-03-01T06:35:00;8.53;;;7.63;;
21192;SDS011;10754;51.106;7.164;2023-03-01T06:37:25;8.20;;;7.40;;
21192;SDS011;10754;51.106;7.164;2023-03-01T06:39:51;8.23;;;7.43;;
21192;SDS011;10754;51.106;7.164;2023-03-01T06:42:16;8.23;;;7.43;;
21192;SDS011;10754;51.106;7.164;2023-03-01T06:44:43;8.03;;;7.23;;
21192;SDS011;10754;51.106;7.164;2023-03-01T06:47:09;9.60;;;8.50;;
21192;SDS011;10754;51.106;7.164;2023-03-01T06:49:34;8.80;;;7.63;;
21192;SDS011;10754;51.106;7.164;2023-03-01T06:52:00;9.30;;;8.40;;
21192;SDS011;10754;51.106;7.164;2023-03-01T06:54:25;8.50;;;7.67;;
21192;SDS011;10754;51.106;7.164;2023-03-01T06:56:52;8.30;;;7.50;;
21192;SDS011;10754;51.106;7.164;2023-03-01T06:59:18;9.30;;;8.40;;
21192;SDS011;10754;51.106;7.164;2023-03-01T07:01:44;8.53;;;7.73;;
21192;SDS011;10754;51.106;7.164;2023-03-01T07:04:10;7.93;;;7.23;;
21192;SDS011;10754;51.106;7.164;2023-03-01T07:06:36;7.63;;;6.93;;
21192;SDS011;10754;51.106;7.164;2023-03-01T07:09:01;9.23;;;8.33;;
21192;SDS011;10754;51.106;7.164;2023-03-01T07:11:27;8.93;;;7.97;;
21192;SDS011;10754;51.106;7.164;2023-03-01T07:13:52;8.97;;;8.07;;
21192;SDS011;10754;51.106;7.164;2023-03-01T07:16:18;8.10;;;7.30;;
21192;SDS011;10754;51.106;7.164;2023-03-01T07:18:45;9.60;;;8.00;;
21192;SDS011;10754;51.106;7.164;2023-03-01T07:21:11;8.40;;;7.57;;
21192;SDS011;10754;51.106;7.164;2023-03-01T07:23:38;12.40;;;7.73;;
21192;SDS011;10754;51.106;7.164;2023-03-01T07:26:03;8.73;;;7.83;;
21192;SDS011;10754;51.106;7.164;2023-03-01T07:28:29;8.33;;;7.53;;
21192;SDS011;10754;51.106;7.164;2023-03-01T07:30:58;8.10;;;7.30;;
21192;SDS011;10754;51.106;7.164;2023-03-01T07:33:26;8.93;;;7.43;;
21192;SDS011;10754;51.106;7.164;2023-03-01T07:35:55;10.53;;;8.73;;
21192;SDS011;10754;51.106;7.164;2023-03-01T07:38:22;8.53;;;7.63;;
21192;SDS011;10754;51.106;7.164;2023-03-01T07:40:48;7.90;;;7.10;;
21192;SDS011;10754;51.106;7.164;2023-03-01T07:43:13;8.43;;;7.57;;
21192;SDS011;10754;51.106;7.164;2023-03-01T07:45:39;8.47;;;7.67;;
21192;SDS011;10754;51.106;7.164;2023-03-01T07:48:04;8.60;;;7.77;;
21192;SDS011;10754;51.106;7.164;2023-03-01T07:50:30;8.93;;;7.57;;
21192;SDS011;10754;51.106;7.164;2023-03-01T07:52:55;7.87;;;7.17;;
21192;SDS011;10754;51.106;7.164;2023-03-01T07:55:21;10.47;;;7.60;;
21192;SDS011;10754;51.106;7.164;2023-03-01T07:57:46;8.57;;;7.73;;
21192;SDS011;10754;51.106;7.164;2023-03-01T08:00:12;8.17;;;7.37;;
21192;SDS011;10754;51.106;7.164;2023-03-01T08:02:38;9.07;;;7.37;;
21192;SDS011;10754;51.106;7.164;2023-03-01T08:05:05;7.90;;;7.13;;
21192;SDS011;10754;51.106;7.164;2023-03-01T08:07:31;9.23;;;7.90;;
21192;SDS011;10754;51.106;7.164;2023-03-01T08:09:57;7.57;;;6.87;;
21192;SDS011;10754;51.106;7.164;2023-03-01T08:12:23;9.00;;;7.40;;
21192;SDS011;10754;51.106;7.164;2023-03-01T08:14:48;8.03;;;7.23;;
21192;SDS011;10754;51.106;7.164;2023-03-01T08:17:14;8.30;;;7.50;;
21192;SDS011;10754;51.106;7.164;2023-03-01T08:19:39;8.53;;;7.63;;
21192;SDS011;10754;51.106;7.164;2023-03-01T08:22:05;8.57;;;6.97;;
21192;SDS011;10754;51.106;7.164;2023-03-01T08:24:31;8.40;;;7.47;;
21192;SDS011;10754;51.106;7.164;2023-03-01T08:26:56;8.57;;;7.57;;
21192;SDS011;10754;51.106;7.164;2023-03-01T08:29:22;7.50;;;6.83;;
21192;SDS011;10754;51.106;7.164;2023-03-01T08:31:49;8.33;;;7.53;;
21192;SDS011;10754;51.106;7.164;2023-03-01T08:34:15;7.87;;;7.07;;
21192;SDS011;10754;51.106;7.164;2023-03-01T08:36:43;7.97;;;7.00;;
21192;SDS011;10754;51.106;7.164;2023-03-01T08:39:11;7.77;;;6.97;;
21192;SDS011;10754;51.106;7.164;2023-03-01T08:41:39;7.70;;;7.00;;
21192;SDS011;10754;51.106;7.164;2023-03-01T08:44:05;8.53;;;7.03;;
21192;SDS011;10754;51.106;7.164;2023-03-01T08:46:32;8.87;;;7.97;;
21192;SDS011;10754;51.106;7.164;2023-03-01T08:49:03;7.43;;;6.73;;
21192;SDS011;10754;51.106;7.164;2023-03-01T08:51:30;7.30;;;6.63;;
21192;SDS011;10754;51.106;7.164;2023-03-01T08:53:57;7.53;;;6.73;;
21192;SDS011;10754;51.106;7.164;2023-03-01T08:56:23;7.73;;;6.90;;
21192;SDS011;10754;51.106;7.164;2023-03-01T08:58:48;7.60;;;6.83;;
21192;SDS011;10754;51.106;7.164;2023-03-01T09:01:15;6.60;;;5.93;;
21192;SDS011;10754;51.106;7.164;2023-03-01T09:03:43;7.77;;;6.20;;
21192;SDS011;10754;51.106;7.164;2023-03-01T09:06:09;7.63;;;6.50;;
21192;SDS011;10754;51.106;7.164;2023-03-01T09:08:36;6.70;;;6.07;;
21192;SDS011;10754;51.106;7.164;2023-03-01T09:11:03;8.67;;;6.67;;
21192;SDS011;10754;51.106;7.164;2023-03-01T09:13:34;7.80;;;6.90;;
21192;SDS011;10754;51.106;7.164;2023-03-01T09:16:01;8.63;;;6.90;;
21192;SDS011;10754;51.106;7.164;2023-03-01T09:18:27;8.87;;;7.10;;
21192;SDS011;10754;51.106;7.164;2023-03-01T09:21:00;7.00;;;6.30;;
21192;SDS011;10754;51.106;7.164;2023-03-01T09:23:32;7.90;;;6.93;;
21192;SDS011;10754;51.106;7.164;2023-03-01T09:25:59;8.60;;;7.40;;
21192;SDS011;10754;51.106;7.164;2023-03-01T09:28:24;7.57;;;6.70;;
21192;SDS011;10754;51.106;7.164;2023-03-01T09:30:50;7.63;;;6.83;;
21192;SDS011;10754;51.106;7.164;2023-03-01T09:33:15;6.87;;;6.07;;
21192;SDS011;10754;51.106;7.164;2023-03-01T09:35:41;7.27;;;6.50;;
21192;SDS011;10754;51.106;7.164;2023-03-01T09:38:11;8.17;;;6.23;;
21192;SDS011;10754;51.106;7.164;2023-03-01T09:40:41;6.73;;;6.03;;
21192;SDS011;10754;51.106;7.164;2023-03-01T09:46:05;6.53;;;5.87;;
21192;SDS011;10754;51.106;7.164;2023-03-01T09:51:34;6.40;;;5.80;;
21192;SDS011;10754;51.106;7.164;2023-03-01T09:54:04;6.87;;;6.07;;
21192;SDS011;10754;51.106;7.164;2023-03-01T09:59:15;6.73;;;6.03;;
21192;SDS011;10754;51.106;7.164;2023-03-01T10:01:54;7.53;;;6.17;;
21192;SDS011;10754;51.106;7.164;2023-03-01T10:04:45;6.07;;;5.47;;
21192;SDS011;10754;51.106;7.164;2023-03-01T10:10:08;6.77;;;6.03;;
21192;SDS011;10754;51.106;7.164;2023-03-01T10:12:41;6.70;;;6.10;;
21192;SDS011;10754;51.106;7.164;2023-03-01T10:15:15;6.50;;;5.80;;
21192;SDS011;10754;51.106;7.164;2023-03-01T10:17:56;7.07;;;5.93;;
21192;SDS011;10754;51.106;7.164;2023-03-01T10:20:42;6.33;;;5.73;;
21192;SDS011;10754;51.106;7.164;2023-03-01T10:23:27;6.93;;;6.23;;
21192;SDS011;10754;51.106;7.164;2023-03-01T10:28:57;6.40;;;5.80;;
21192;SDS011;10754;51.106;7.164;2023-03-01T10:31:32;6.43;;;5.83;;
21192;SDS011;10754;51.106;7.164;2023-03-01T10:34:17;7.37;;;6.20;;
21192;SDS011;10754;51.106;7.164;2023-03-01T10:36:48;6.97;;;6.27;;
21192;SDS011;10754;51.106;7.164;2023-03-01T10:39:22;5.90;;;5.40;;
21192;SDS011;10754;51.106;7.164;2023-03-01T10:47:16;6.40;;;5.80;;
21192;SDS011;10754;51.106;7.164;2023-03-01T10:52:31;13.03;;;6.57;;
21192;SDS011;10754;51.106;7.164;2023-03-01T10:55:01;6.73;;;6.07;;
21192;SDS011;10754;51.106;7.164;2023-03-01T10:57:45;6.07;;;5.47;;
21192;SDS011;10754;51.106;7.164;2023-03-01T11:03:12;5.57;;;5.10;;
21192;SDS011;10754;51.106;7.164;2023-03-01T11:05:52;6.70;;;6.10;;
21192;SDS011;10754;51.106;7.164;2023-03-01T11:08:30;6.10;;;5.50;;
21192;SDS011;10754;51.106;7.164;2023-03-01T11:13:39;6.07;;;5.47;;
21192;SDS011;10754;51.106;7.164;2023-03-01T11:16:38;6.63;;;5.33;;
21192;SDS011;10754;51.106;7.164;2023-03-01T11:21:35;6.37;;;5.77;;
21192;SDS011;10754;51.106;7.164;2023-03-01T11:24:26;6.87;;;6.27;;
21192;SDS011;10754;51.106;7.164;2023-03-01T11:26:59;7.17;;;5.87;;
21192;SDS011;10754;51.106;7.164;2023-03-01T11:31:57;6.13;;;5.60;;
21192;SDS011;10754;51.106;7.164;2023-03-01T11:34:43;6.35;;;5.72;;
21192;SDS011;10754;51.106;7.164;2023-03-01T11:37:35;5.85;;;5.25;;
21192;SDS011;10754;51.106;7.164;2023-03-01T11:40:16;5.28;;;4.78;;
21192;SDS011;10754;51.106;7.164;2023-03-01T11:57:03;5.43;;;4.93;;
21192;SDS011;10754;51.106;7.164;2023-03-01T12:03:06;5.88;;;5.38;;
21192;SDS011;10754;51.106;7.164;2023-03-01T12:08:20;5.72;;;5.20;;
21192;SDS011;10754;51.106;7.164;2023-03-01T12:14:41;5.43;;;4.93;;
21192;SDS011;10754;51.106;7.164;2023-03-01T12:19:56;5.43;;;4.93;;
21192;SDS011;10754;51.106;7.164;2023-03-01T12:22:31;5.22;;;4.78;;
21192;SDS011;10754;51.106;7.164;2023-03-01T12:30:29;5.78;;;5.18;;
21192;SDS011;10754;51.106;7.164;2023-03-01T12:33:21;5.75;;;5.15;;
21192;SDS011;10754;51.106;7.164;2023-03-01T12:38:50;5.43;;;4.05;;
21192;SDS011;10754;51.106;7.164;2023-03-01T12:49:20;5.28;;;4.78;;
21192;SDS011;10754;51.106;7.164;2023-03-01T12:51:51;5.13;;;4.72;;
21192;SDS011;10754;51.106;7.164;2023-03-01T12:54:27;5.00;;;4.60;;
21192;SDS011;10754;51.106;7.164;2023-03-01T12:56:56;5.15;;;4.30;;
21192;SDS011;10754;51.106;7.164;2023-03-01T12:59:38;4.53;;;4.13;;
21192;SDS011;10754;51.106;7.164;2023-03-01T13:02:20;4.97;;;4.47;;
21192;SDS011;10754;51.106;7.164;2023-03-01T13:05:18;5.55;;;4.32;;
21192;SDS011;10754;51.106;7.164;2023-03-01T13:07:53;4.57;;;4.18;;
21192;SDS011;10754;51.106;7.164;2023-03-01T13:10:36;4.63;;;4.22;;
21192;SDS011;10754;51.106;7.164;2023-03-01T13:13:13;4.93;;;4.50;;
21192;SDS011;10754;51.106;7.164;2023-03-01T13:15:47;4.72;;;4.32;;
21192;SDS011;10754;51.106;7.164;2023-03-01T13:26:30;4.10;;;3.72;;
21192;SDS011;10754;51.106;7.164;2023-03-01T13:28:47;4.32;;;3.92;;
21192;SDS011;10754;51.106;7.164;2023-03-01T13:33:46;5.43;;;4.00;;
21192;SDS011;10754;51.106;7.164;2023-03-01T13:44:45;4.82;;;4.18;;
21192;SDS011;10754;51.106;7.164;2023-03-01T13:49:46;5.13;;;4.53;;
21192;SDS011;10754;51.106;7.164;2023-03-01T13:55:16;4.55;;;4.15;;
21192;SDS011;10754;51.106;7.164;2023-03-01T13:57:43;4.32;;;3.92;;
21192;SDS011;10754;51.106;7.164;2023-03-01T14:02:59;5.00;;;4.03;;
21192;SDS011;10754;51.106;7.164;2023-03-01T14:05:25;5.57;;;4.90;;
21192;SDS011;10754;51.106;7.164;2023-03-01T14:07:51;5.55;;;5.00;;
21192;SDS011;10754;51.106;7.164;2023-03-01T14:10:16;5.40;;;4.57;;
21192;SDS011;10754;51.106;7.164;2023-03-01T14:15:27;7.40;;;4.70;;
21192;SDS011;10754;51.106;7.164;2023-03-01T14:17:59;4.38;;;4.00;;
21192;SDS011;10754;51.106;7.164;2023-03-01T14:20:39;5.30;;;4.80;;
21192;SDS011;10754;51.106;7.164;2023-03-01T14:23:12;4.60;;;4.20;;
21192;SDS011;10754;51.106;7.164;2023-03-01T14:25:46;5.82;;;4.50;;
21192;SDS011;10754;51.106;7.164;2023-03-01T14:30:48;4.60;;;4.20;;
21192;SDS011;10754;51.106;7.164;2023-03-01T14:33:18;5.47;;;4.97;;
21192;SDS011;10754;51.106;7.164;2023-03-01T14:36:25;6.95;;;5.13;;
21192;SDS011;10754;51.106;7.164;2023-03-01T14:38:42;5.18;;;4.60;;
21192;SDS011;10754;51.106;7.164;2023-03-01T14:41:11;5.82;;;4.78;;
21192;SDS011;10754;51.106;7.164;2023-03-01T14:43:41;6.95;;;5.50;;
21192;SDS011;10754;51.106;7.164;2023-03-01T14:46:21;5.20;;;4.70;;
21192;SDS011;10754;51.106;7.164;2023-03-01T14:48:54;5.53;;;4.63;;
21192;SDS011;10754;51.106;7.164;2023-03-01T14:51:25;5.38;;;4.88;;
21192;SDS011;10754;51.106;7.164;2023-03-01T14:53:51;5.53;;;5.03;;
21192;SDS011;10754;51.106;7.164;2023-03-01T14:56:17;5.38;;;4.88;;
21192;SDS011;10754;51.106;7.164;2023-03-01T14:58:45;5.07;;;4.57;;
21192;SDS011;10754;51.106;7.164;2023-03-01T15:01:15;6.03;;;4.43;;
21192;SDS011;10754;51.106;7.164;2023-03-01T15:03:43;7.47;;;4.95;;
21192;SDS011;10754;51.106;7.164;2023-03-01T15:06:10;5.78;;;4.72;;
21192;SDS011;10754;51.106;7.164;2023-03-01T15:08:41;6.80;;;4.65;;
21192;SDS011;10754;51.106;7.164;2023-03-01T15:13:38;4.82;;;4.32;;
21192;SDS011;10754;51.106;7.164;2023-03-01T15:16:13;4.88;;;4.38;;
21192;SDS011;10754;51.106;7.164;2023-03-01T15:18:45;5.68;;;4.40;;
21192;SDS011;10754;51.106;7.164;2023-03-01T15:21:24;6.15;;;4.93;;
21192;SDS011;10754;51.106;7.164;2023-03-01T15:24:08;4.75;;;4.25;;
21192;SDS011;10754;51.106;7.164;2023-03-01T15:26:50;6.57;;;5.15;;
21192;SDS011;10754;51.106;7.164;2023-03-01T15:29:21;5.05;;;4.55;;
21192;SDS011;10754;51.106;7.164;2023-03-01T15:31:56;6.10;;;5.00;;
21192;SDS011;10754;51.106;7.164;2023-03-01T15:36:51;5.35;;;4.38;;
21192;SDS011;10754;51.106;7.164;2023-03-01T15:42:03;4.43;;;4.03;;
21192;SDS011;10754;51.106;7.164;2023-03-01T15:44:32;4.82;;;4.32;;
21192;SDS011;10754;51.106;7.164;2023-03-01T15:47:00;5.43;;;4.40;;
21192;SDS011;10754;51.106;7.164;2023-03-01T15:52:13;5.88;;;4.07;;
21192;SDS011;10754;51.106;7.164;2023-03-01T15:54:56;4.45;;;4.05;;
21192;SDS011;10754;51.106;7.164;2023-03-01T15:57:26;5.50;;;4.90;;
21192;SDS011;10754;51.106;7.164;2023-03-01T15:59:52;4.72;;;4.20;;
21192;SDS011;10754;51.106;7.164;2023-03-01T16:02:17;5.97;;;4.72;;
21192;SDS011;10754;51.106;7.164;2023-03-01T16:04:45;5.43;;;4.30;;
21192;SDS011;10754;51.106;7.164;2023-03-01T16:07:11;4.95;;;4.30;;
21192;SDS011;10754;51.106;7.164;2023-03-01T16:09:37;4.90;;;4.07;;
21192;SDS011;10754;51.106;7.164;2023-03-01T16:12:02;4.83;;;4.00;;
21192;SDS011;10754;51.106;7.164;2023-03-01T16:14:28;4.47;;;4.07;;
21192;SDS011;10754;51.106;7.164;2023-03-01T16:16:54;6.18;;;4.90;;
21192;SDS011;10754;51.106;7.164;2023-03-01T16:19:19;7.22;;;5.10;;
21192;SDS011;10754;51.106;7.164;2023-03-01T16:21:45;5.00;;;4.50;;
21192;SDS011;10754;51.106;7.164;2023-03-01T16:24:11;5.75;;;4.72;;
21192;SDS011;10754;51.106;7.164;2023-03-01T16:26:37;5.47;;;4.90;;
21192;SDS011;10754;51.106;7.164;2023-03-01T16:29:03;4.33;;;3.93;;
21192;SDS011;10754;51.106;7.164;2023-03-01T16:31:29;6.17;;;4.27;;
21192;SDS011;10754;51.106;7.164;2023-03-01T16:33:55;4.93;;;4.40;;
21192;SDS011;10754;51.106;7.164;2023-03-01T16:36:23;5.20;;;4.37;;
21192;SDS011;10754;51.106;7.164;2023-03-01T16:38:50;5.33;;;3.90;;
21192;SDS011;10754;51.106;7.164;2023-03-01T16:41:17;5.60;;;4.15;;
21192;SDS011;10754;51.106;7.164;2023-03-01T16:43:44;4.27;;;3.87;;
21192;SDS011;10754;51.106;7.164;2023-03-01T16:46:19;4.80;;;4.30;;
21192;SDS011;10754;51.106;7.164;2023-03-01T16:48:47;4.37;;;3.97;;
21192;SDS011;10754;51.106;7.164;2023-03-01T16:51:13;4.30;;;3.90;;
21192;SDS011;10754;51.106;7.164;2023-03-01T16:53:39;4.83;;;4.20;;
21192;SDS011;10754;51.106;7.164;2023-03-01T16:56:06;4.57;;;4.13;;
21192;SDS011;10754;51.106;7.164;2023-03-01T16:58:33;4.53;;;4.13;;
21192;SDS011;10754;51.106;7.164;2023-03-01T17:01:03;4.33;;;3.93;;
21192;SDS011;10754;51.106;7.164;2023-03-01T17:03:31;3.90;;;3.50;;